sensor_id;sensor_type;location;lat;lon;timestamp;pressure;altitude;pressure_sealevel;temperature;humidity
52957;BME280;38819;42.692;23.342;2022-09-12T00:02:23;95094.31;;;18.28;68.63
52957;BME280;38819;42.692;23.342;2022-09-12T00:04:48;95099.44;;;18.29;69.12
52957;BME280;38819;42.692;23.342;2022-09-12T00:07:14;95098.88;;;18.36;68.51
52957;BME280;38819;42.692;23.342;2022-09-12T00:09:39;95104.69;;;18.35;68.40
52957;BME280;38819;42.692;23.342;2022-09-12T00:12:06;95103.69;;;18.14;69.00
52957;BME280;38819;42.692;23.342;2022-09-12T00:14:34;95100.72;;;18.20;68.68
52957;BME280;38819;42.692;23.342;2022-09-12T00:17:00;95101.50;;;18.20;68.91
52957;BME280;38819;42.692;23.342;2022-09-12T00:19:26;95101.84;;;18.19;69.19
52957;BME280;38819;42.692;23.342;2022-09-12T00:21:52;95105.94;;;18.12;69.02
52957;BME280;38819;42.692;23.342;2022-09-12T00:24:18;95115.97;;;18.08;68.33
52957;BME280;38819;42.692;23.342;2022-09-12T00:26:44;95116.09;;;17.87;68.30
52957;BME280;38819;42.692;23.342;2022-09-12T00:29:20;95103.69;;;17.90;68.60
52957;BME280;38819;42.692;23.342;2022-09-12T00:31:46;95105.31;;;17.91;68.95
52957;BME280;38819;42.692;23.342;2022-09-12T00:34:12;95109.59;;;17.80;68.98
52957;BME280;38819;42.692;23.342;2022-09-12T00:36:38;95108.63;;;17.38;70.36
52957;BME280;38819;42.692;23.342;2022-09-12T00:39:04;95099.44;;;17.55;69.93
52957;BME280;38819;42.692;23.342;2022-09-12T00:41:33;95105.38;;;17.70;69.09
52957;BME280;38819;42.692;23.342;2022-09-12T00:44:47;95097.75;;;17.63;69.20
52957;BME280;38819;42.692;23.342;2022-09-12T00:51:48;95103.88;;;17.72;68.82
52957;BME280;38819;42.692;23.342;2022-09-12T00:54:21;95109.94;;;17.78;68.19
52957;BME280;38819;42.692;23.342;2022-09-12T00:56:50;95096.38;;;17.69;68.13
52957;BME280;38819;42.692;23.342;2022-09-12T00:59:25;95100.94;;;17.77;68.03
52957;BME280;38819;42.692;23.342;2022-09-12T01:01:51;95101.06;;;17.81;67.86
52957;BME280;38819;42.692;23.342;2022-09-12T01:04:19;95103.69;;;17.77;67.62
52957;BME280;38819;42.692;23.342;2022-09-12T01:06:47;95086.91;;;17.79;68.06
52957;BME280;38819;42.692;23.342;2022-09-12T01:09:20;95097.72;;;17.75;68.01
52957;BME280;38819;42.692;23.342;2022-09-12T01:11:47;95099.69;;;17.87;67.54
52957;BME280;38819;42.692;23.342;2022-09-12T01:14:15;95101.72;;;17.78;67.52
52957;BME280;38819;42.692;23.342;2022-09-12T01:16:41;95098.88;;;17.74;67.88
52957;BME280;38819;42.692;23.342;2022-09-12T01:24:52;95090.00;;;17.65;67.43
52957;BME280;38819;42.692;23.342;2022-09-12T01:38:33;95089.66;;;17.67;67.24
52957;BME280;38819;42.692;23.342;2022-09-12T01:41:25;95092.38;;;17.67;67.33
52957;BME280;38819;42.692;23.342;2022-09-12T01:49:22;95082.03;;;17.48;67.76
52957;BME280;38819;42.692;23.342;2022-09-12T01:52:01;95084.88;;;17.51;67.59
52957;BME280;38819;42.692;23.342;2022-09-12T01:54:42;95082.47;;;17.50;67.14
52957;BME280;38819;42.692;23.342;2022-09-12T01:57:14;95086.59;;;17.56;67.38
52957;BME280;38819;42.692;23.342;2022-09-12T01:59:47;95087.38;;;17.56;67.21
52957;BME280;38819;42.692;23.342;2022-09-12T02:02:19;95075.53;;;17.52;67.03
52957;BME280;38819;42.692;23.342;2022-09-12T02:05:02;95078.75;;;17.54;66.83
52957;BME280;38819;42.692;23.342;2022-09-12T02:07:51;95085.09;;;17.46;67.11
52957;BME280;38819;42.692;23.342;2022-09-12T02:10:21;95086.81;;;17.51;66.98
52957;BME280;38819;42.692;23.342;2022-09-12T02:13:22;95081.78;;;17.28;67.13
52957;BME280;38819;42.692;23.342;2022-09-12T02:15:51;95092.00;;;17.31;67.42
52957;BME280;38819;42.692;23.342;2022-09-12T02:18:19;95088.94;;;17.33;66.88
52957;BME280;38819;42.692;23.342;2022-09-12T02:20:47;95102.22;;;17.22;67.39
52957;BME280;38819;42.692;23.342;2022-09-12T02:23:17;95087.28;;;17.07;67.78
52957;BME280;38819;42.692;23.342;2022-09-12T02:25:47;95090.72;;;17.04;68.01
52957;BME280;38819;42.692;23.342;2022-09-12T02:28:17;95079.78;;;17.04;67.65
52957;BME280;38819;42.692;23.342;2022-09-12T02:31:00;95080.38;;;17.10;67.37
52957;BME280;38819;42.692;23.342;2022-09-12T02:38:54;95081.16;;;17.10;67.06
52957;BME280;38819;42.692;23.342;2022-09-12T02:41:20;95089.69;;;17.09;67.12
52957;BME280;38819;42.692;23.342;2022-09-12T02:43:47;95093.56;;;17.08;66.93
52957;BME280;38819;42.692;23.342;2022-09-12T02:46:19;95097.03;;;16.96;67.04
52957;BME280;38819;42.692;23.342;2022-09-12T02:48:46;95089.19;;;16.94;67.30
52957;BME280;38819;42.692;23.342;2022-09-12T02:51:12;95089.75;;;16.88;67.89
52957;BME280;38819;42.692;23.342;2022-09-12T02:53:38;95091.25;;;16.97;67.18
52957;BME280;38819;42.692;23.342;2022-09-12T02:56:07;95078.06;;;16.99;66.94
52957;BME280;38819;42.692;23.342;2022-09-12T02:58:35;95090.22;;;17.02;67.00
52957;BME280;38819;42.692;23.342;2022-09-12T03:06:45;95095.97;;;16.88;66.99
52957;BME280;38819;42.692;23.342;2022-09-12T03:12:07;95101.44;;;16.88;67.12
52957;BME280;38819;42.692;23.342;2022-09-12T03:17:13;95109.50;;;16.84;66.95
52957;BME280;38819;42.692;23.342;2022-09-12T03:20:01;95103.50;;;16.91;66.87
52957;BME280;38819;42.692;23.342;2022-09-12T03:25:26;95101.16;;;16.81;67.10
52957;BME280;38819;42.692;23.342;2022-09-12T03:28:22;95095.09;;;16.75;67.61
52957;BME280;38819;42.692;23.342;2022-09-12T03:30:48;95102.81;;;16.73;67.77
52957;BME280;38819;42.692;23.342;2022-09-12T03:33:20;95104.38;;;16.62;68.22
52957;BME280;38819;42.692;23.342;2022-09-12T03:35:47;95110.47;;;16.59;68.17
52957;BME280;38819;42.692;23.342;2022-09-12T03:38:12;95101.59;;;16.49;68.48
52957;BME280;38819;42.692;23.342;2022-09-12T03:40:38;95103.31;;;16.54;68.42
52957;BME280;38819;42.692;23.342;2022-09-12T03:43:05;95103.00;;;16.56;68.36
52957;BME280;38819;42.692;23.342;2022-09-12T03:45:31;95103.56;;;16.61;68.08
52957;BME280;38819;42.692;23.342;2022-09-12T03:47:57;95102.91;;;16.64;67.83
52957;BME280;38819;42.692;23.342;2022-09-12T03:50:22;95104.31;;;16.71;67.63
52957;BME280;38819;42.692;23.342;2022-09-12T03:52:48;95102.25;;;16.67;67.88
52957;BME280;38819;42.692;23.342;2022-09-12T03:55:13;95099.03;;;16.65;67.90
52957;BME280;38819;42.692;23.342;2022-09-12T03:57:38;95105.09;;;16.71;67.54
52957;BME280;38819;42.692;23.342;2022-09-12T04:00:05;95107.94;;;16.75;67.71
52957;BME280;38819;42.692;23.342;2022-09-12T04:02:33;95104.88;;;16.76;67.46
52957;BME280;38819;42.692;23.342;2022-09-12T04:04:58;95110.22;;;16.73;67.64
52957;BME280;38819;42.692;23.342;2022-09-12T04:07:23;95110.00;;;16.78;67.49
52957;BME280;38819;42.692;23.342;2022-09-12T04:09:49;95106.84;;;16.55;68.05
52957;BME280;38819;42.692;23.342;2022-09-12T04:12:14;95103.69;;;16.65;67.74
52957;BME280;38819;42.692;23.342;2022-09-12T04:14:40;95111.66;;;16.70;67.54
52957;BME280;38819;42.692;23.342;2022-09-12T04:17:05;95109.75;;;16.71;67.63
52957;BME280;38819;42.692;23.342;2022-09-12T04:19:31;95117.94;;;16.71;67.27
52957;BME280;38819;42.692;23.342;2022-09-12T04:21:56;95118.72;;;16.71;67.16
52957;BME280;38819;42.692;23.342;2022-09-12T04:24:22;95113.28;;;16.71;67.19
52957;BME280;38819;42.692;23.342;2022-09-12T04:26:47;95110.56;;;16.71;66.88
52957;BME280;38819;42.692;23.342;2022-09-12T04:29:13;95120.84;;;16.65;67.16
52957;BME280;38819;42.692;23.342;2022-09-12T04:31:39;95119.19;;;16.52;67.49
52957;BME280;38819;42.692;23.342;2022-09-12T04:34:05;95121.47;;;16.50;67.72
52957;BME280;38819;42.692;23.342;2022-09-12T04:36:31;95119.81;;;16.58;67.65
52957;BME280;38819;42.692;23.342;2022-09-12T04:38:59;95119.69;;;16.54;67.81
52957;BME280;38819;42.692;23.342;2022-09-12T04:41:28;95122.72;;;16.53;68.12
52957;BME280;38819;42.692;23.342;2022-09-12T04:44:03;95124.47;;;16.57;67.67
52957;BME280;38819;42.692;23.342;2022-09-12T04:46:31;95113.56;;;16.57;67.87
52957;BME280;38819;42.692;23.342;2022-09-12T04:48:57;95130.25;;;16.56;67.92
52957;BME280;38819;42.692;23.342;2022-09-12T04:51:25;95129.56;;;16.59;68.14
52957;BME280;38819;42.692;23.342;2022-09-12T04:53:53;95134.88;;;16.55;68.03
52957;BME280;38819;42.692;23.342;2022-09-12T04:56:19;95123.94;;;16.64;67.80
52957;BME280;38819;42.692;23.342;2022-09-12T04:58:45;95120.00;;;16.53;67.90
52957;BME280;38819;42.692;23.342;2022-09-12T05:01:14;95124.72;;;16.64;67.69
52957;BME280;38819;42.692;23.342;2022-09-12T05:03:40;95127.69;;;16.72;67.68
52957;BME280;38819;42.692;23.342;2022-09-12T05:06:11;95140.00;;;16.78;67.31
52957;BME280;38819;42.692;23.342;2022-09-12T05:08:37;95140.47;;;16.80;66.95
52957;BME280;38819;42.692;23.342;2022-09-12T05:11:05;95126.31;;;16.65;67.33
52957;BME280;38819;42.692;23.342;2022-09-12T05:13:32;95129.09;;;16.78;67.25
52957;BME280;38819;42.692;23.342;2022-09-12T05:15:59;95128.31;;;16.77;66.64
52957;BME280;38819;42.692;23.342;2022-09-12T05:18:25;95131.50;;;16.79;66.25
52957;BME280;38819;42.692;23.342;2022-09-12T05:20:52;95132.94;;;16.77;66.34
52957;BME280;38819;42.692;23.342;2022-09-12T05:23:17;95126.50;;;16.81;66.75
52957;BME280;38819;42.692;23.342;2022-09-12T05:25:50;95128.19;;;16.95;65.93
52957;BME280;38819;42.692;23.342;2022-09-12T05:28:17;95135.09;;;16.92;66.09
52957;BME280;38819;42.692;23.342;2022-09-12T05:30:43;95122.81;;;16.86;66.22
52957;BME280;38819;42.692;23.342;2022-09-12T05:33:08;95132.22;;;16.89;66.25
52957;BME280;38819;42.692;23.342;2022-09-12T05:35:34;95126.13;;;16.92;66.07
52957;BME280;38819;42.692;23.342;2022-09-12T05:38:02;95139.22;;;16.98;65.76
52957;BME280;38819;42.692;23.342;2022-09-12T05:40:28;95140.53;;;16.92;66.01
52957;BME280;38819;42.692;23.342;2022-09-12T05:42:53;95142.16;;;16.93;66.20
52957;BME280;38819;42.692;23.342;2022-09-12T05:45:19;95141.81;;;16.95;66.08
52957;BME280;38819;42.692;23.342;2022-09-12T05:47:45;95136.59;;;17.02;66.16
52957;BME280;38819;42.692;23.342;2022-09-12T05:50:14;95139.28;;;17.11;65.26
52957;BME280;38819;42.692;23.342;2022-09-12T05:52:39;95139.41;;;17.14;65.03
52957;BME280;38819;42.692;23.342;2022-09-12T05:55:05;95133.94;;;17.14;64.92
52957;BME280;38819;42.692;23.342;2022-09-12T05:57:30;95133.38;;;17.21;64.49
52957;BME280;38819;42.692;23.342;2022-09-12T05:59:56;95121.72;;;17.33;64.21
52957;BME280;38819;42.692;23.342;2022-09-12T06:02:21;95111.13;;;17.31;64.34
52957;BME280;38819;42.692;23.342;2022-09-12T06:04:47;95120.34;;;17.39;64.03
52957;BME280;38819;42.692;23.342;2022-09-12T06:07:12;95114.31;;;17.46;64.11
52957;BME280;38819;42.692;23.342;2022-09-12T06:09:39;95109.00;;;17.49;64.30
52957;BME280;38819;42.692;23.342;2022-09-12T06:12:04;95109.78;;;17.62;64.19
52957;BME280;38819;42.692;23.342;2022-09-12T06:14:31;95105.16;;;17.63;63.53
52957;BME280;38819;42.692;23.342;2022-09-12T06:16:57;95107.75;;;17.71;63.57
52957;BME280;38819;42.692;23.342;2022-09-12T06:19:22;95114.38;;;17.83;63.67
52957;BME280;38819;42.692;23.342;2022-09-12T06:21:49;95112.56;;;17.87;62.79
52957;BME280;38819;42.692;23.342;2022-09-12T06:24:17;95114.72;;;17.93;63.30
52957;BME280;38819;42.692;23.342;2022-09-12T06:26:42;95122.81;;;17.90;63.20
52957;BME280;38819;42.692;23.342;2022-09-12T06:29:08;95128.50;;;17.97;63.32
52957;BME280;38819;42.692;23.342;2022-09-12T06:31:36;95137.59;;;17.89;63.30
52957;BME280;38819;42.692;23.342;2022-09-12T06:34:05;95145.44;;;17.78;63.45
52957;BME280;38819;42.692;23.342;2022-09-12T06:36:39;95141.91;;;17.77;63.58
52957;BME280;38819;42.692;23.342;2022-09-12T06:39:31;95136.97;;;17.58;64.51
52957;BME280;38819;42.692;23.342;2022-09-12T06:41:56;95131.75;;;17.53;65.12
52957;BME280;38819;42.692;23.342;2022-09-12T06:44:22;95140.16;;;17.60;64.91
52957;BME280;38819;42.692;23.342;2022-09-12T06:46:48;95145.06;;;17.55;65.06
52957;BME280;38819;42.692;23.342;2022-09-12T06:49:13;95142.22;;;17.64;65.39
52957;BME280;38819;42.692;23.342;2022-09-12T06:51:39;95142.59;;;17.74;65.27
52957;BME280;38819;42.692;23.342;2022-09-12T06:54:06;95143.59;;;17.70;65.31
52957;BME280;38819;42.692;23.342;2022-09-12T06:56:31;95143.59;;;17.82;64.84
52957;BME280;38819;42.692;23.342;2022-09-12T06:58:58;95138.97;;;17.83;64.75
52957;BME280;38819;42.692;23.342;2022-09-12T07:01:28;95153.56;;;17.87;64.17
52957;BME280;38819;42.692;23.342;2022-09-12T07:03:56;95146.56;;;17.77;64.43
52957;BME280;38819;42.692;23.342;2022-09-12T07:06:26;95151.13;;;17.73;64.88
52957;BME280;38819;42.692;23.342;2022-09-12T07:09:00;95154.41;;;17.78;65.25
52957;BME280;38819;42.692;23.342;2022-09-12T07:11:28;95155.69;;;17.81;64.30
52957;BME280;38819;42.692;23.342;2022-09-12T07:13:57;95148.63;;;17.80;64.04
52957;BME280;38819;42.692;23.342;2022-09-12T07:16:23;95139.31;;;17.81;63.82
52957;BME280;38819;42.692;23.342;2022-09-12T07:18:56;95154.47;;;17.91;64.17
52957;BME280;38819;42.692;23.342;2022-09-12T07:21:22;95148.78;;;17.96;63.64
52957;BME280;38819;42.692;23.342;2022-09-12T07:23:47;95150.72;;;18.08;62.67
52957;BME280;38819;42.692;23.342;2022-09-12T07:26:14;95153.53;;;17.99;62.28
52957;BME280;38819;42.692;23.342;2022-09-12T07:28:40;95152.28;;;18.09;62.82
52957;BME280;38819;42.692;23.342;2022-09-12T07:31:10;95154.00;;;18.26;61.65
52957;BME280;38819;42.692;23.342;2022-09-12T07:33:37;95153.22;;;18.13;61.67
52957;BME280;38819;42.692;23.342;2022-09-12T07:36:05;95159.34;;;18.22;61.77
52957;BME280;38819;42.692;23.342;2022-09-12T07:38:31;95150.91;;;18.40;61.60
52957;BME280;38819;42.692;23.342;2022-09-12T07:40:56;95149.41;;;18.55;60.66
52957;BME280;38819;42.692;23.342;2022-09-12T07:43:22;95142.88;;;18.59;58.56
52957;BME280;38819;42.692;23.342;2022-09-12T07:45:47;95146.69;;;18.55;58.98
52957;BME280;38819;42.692;23.342;2022-09-12T07:48:13;95152.50;;;18.53;58.92
52957;BME280;38819;42.692;23.342;2022-09-12T07:50:38;95144.97;;;18.50;58.66
52957;BME280;38819;42.692;23.342;2022-09-12T07:53:04;95145.56;;;18.43;58.18
52957;BME280;38819;42.692;23.342;2022-09-12T07:55:30;95148.38;;;18.47;58.49
52957;BME280;38819;42.692;23.342;2022-09-12T07:57:55;95142.38;;;18.41;57.93
52957;BME280;38819;42.692;23.342;2022-09-12T08:00:21;95150.78;;;18.48;57.72
52957;BME280;38819;42.692;23.342;2022-09-12T08:02:50;95157.72;;;18.46;57.34
52957;BME280;38819;42.692;23.342;2022-09-12T08:05:16;95157.03;;;18.49;57.07
52957;BME280;38819;42.692;23.342;2022-09-12T08:07:42;95161.03;;;18.51;57.15
52957;BME280;38819;42.692;23.342;2022-09-12T08:10:07;95152.03;;;18.51;57.04
52957;BME280;38819;42.692;23.342;2022-09-12T08:12:33;95157.63;;;18.55;57.28
52957;BME280;38819;42.692;23.342;2022-09-12T08:14:59;95156.56;;;18.59;57.69
52957;BME280;38819;42.692;23.342;2022-09-12T08:17:25;95151.91;;;18.60;57.98
52957;BME280;38819;42.692;23.342;2022-09-12T08:19:50;95153.38;;;18.69;57.40
52957;BME280;38819;42.692;23.342;2022-09-12T08:22:17;95148.00;;;18.73;57.33
52957;BME280;38819;42.692;23.342;2022-09-12T08:24:46;95154.47;;;18.93;56.98
52957;BME280;38819;42.692;23.342;2022-09-12T08:27:12;95166.28;;;18.97;57.19
52957;BME280;38819;42.692;23.342;2022-09-12T08:29:39;95159.34;;;19.00;56.91
52957;BME280;38819;42.692;23.342;2022-09-12T08:32:04;95156.84;;;18.95;57.15
52957;BME280;38819;42.692;23.342;2022-09-12T08:34:29;95153.19;;;19.03;57.21
52957;BME280;38819;42.692;23.342;2022-09-12T08:36:55;95156.34;;;19.05;57.06
52957;BME280;38819;42.692;23.342;2022-09-12T08:39:20;95153.81;;;19.12;56.66
52957;BME280;38819;42.692;23.342;2022-09-12T08:41:47;95155.31;;;19.10;56.61
52957;BME280;38819;42.692;23.342;2022-09-12T08:52:28;95138.41;;;19.36;55.59
52957;BME280;38819;42.692;23.342;2022-09-12T08:54:55;95127.75;;;19.47;55.94
52957;BME280;38819;42.692;23.342;2022-09-12T08:57:21;95128.72;;;19.54;55.10
52957;BME280;38819;42.692;23.342;2022-09-12T08:59:48;95121.13;;;19.63;55.10
52957;BME280;38819;42.692;23.342;2022-09-12T09:02:44;95127.47;;;19.68;54.41
52957;BME280;38819;42.692;23.342;2022-09-12T09:05:50;95121.03;;;19.60;54.69
52957;BME280;38819;42.692;23.342;2022-09-12T09:11:44;95135.25;;;19.66;54.00
52957;BME280;38819;42.692;23.342;2022-09-12T09:17:19;95122.34;;;19.66;52.92
52957;BME280;38819;42.692;23.342;2022-09-12T09:22:46;95113.00;;;19.51;52.83
52957;BME280;38819;42.692;23.342;2022-09-12T09:25:20;95118.09;;;19.53;53.56
52957;BME280;38819;42.692;23.342;2022-09-12T09:27:52;95119.09;;;19.44;53.92
52957;BME280;38819;42.692;23.342;2022-09-12T09:30:21;95107.16;;;19.37;53.14
52957;BME280;38819;42.692;23.342;2022-09-12T09:32:53;95107.94;;;19.37;53.58
52957;BME280;38819;42.692;23.342;2022-09-12T09:41:00;95112.44;;;19.46;54.34
52957;BME280;38819;42.692;23.342;2022-09-12T09:43:29;95103.88;;;19.47;53.63
52957;BME280;38819;42.692;23.342;2022-09-12T09:45:56;95096.31;;;19.56;53.12
52957;BME280;38819;42.692;23.342;2022-09-12T09:48:27;95088.53;;;19.58;52.88
52957;BME280;38819;42.692;23.342;2022-09-12T09:50:57;95078.50;;;19.66;53.12
52957;BME280;38819;42.692;23.342;2022-09-12T09:53:38;95086.38;;;19.68;52.97
52957;BME280;38819;42.692;23.342;2022-09-12T09:56:11;95092.31;;;19.54;53.58
52957;BME280;38819;42.692;23.342;2022-09-12T09:58:39;95080.03;;;19.63;53.17
52957;BME280;38819;42.692;23.342;2022-09-12T10:01:11;95075.97;;;19.73;53.51
52957;BME280;38819;42.692;23.342;2022-09-12T10:03:39;95100.13;;;19.84;53.08
52957;BME280;38819;42.692;23.342;2022-09-12T10:06:25;95094.91;;;19.78;53.44
52957;BME280;38819;42.692;23.342;2022-09-12T10:11:38;95093.84;;;19.83;50.80
52957;BME280;38819;42.692;23.342;2022-09-12T10:14:03;95077.28;;;19.95;51.42
52957;BME280;38819;42.692;23.342;2022-09-12T10:16:46;95086.66;;;19.94;51.11
52957;BME280;38819;42.692;23.342;2022-09-12T10:19:20;95105.84;;;19.94;50.52
52957;BME280;38819;42.692;23.342;2022-09-12T10:21:53;95088.41;;;20.03;51.24
52957;BME280;38819;42.692;23.342;2022-09-12T10:24:23;95077.38;;;19.99;52.76
52957;BME280;38819;42.692;23.342;2022-09-12T10:27:05;95077.38;;;19.99;52.80
52957;BME280;38819;42.692;23.342;2022-09-12T10:29:34;95087.97;;;20.01;51.52
52957;BME280;38819;42.692;23.342;2022-09-12T10:32:06;95083.47;;;19.92;53.01
52957;BME280;38819;42.692;23.342;2022-09-12T10:34:40;95084.03;;;19.98;52.96
52957;BME280;38819;42.692;23.342;2022-09-12T10:37:18;95075.06;;;20.01;52.17
52957;BME280;38819;42.692;23.342;2022-09-12T10:39:52;95078.06;;;20.12;51.50
52957;BME280;38819;42.692;23.342;2022-09-12T10:42:41;95080.19;;;20.18;50.15
52957;BME280;38819;42.692;23.342;2022-09-12T10:45:22;95103.69;;;20.20;47.93
52957;BME280;38819;42.692;23.342;2022-09-12T10:47:50;95085.94;;;20.13;48.73
52957;BME280;38819;42.692;23.342;2022-09-12T10:50:38;95088.31;;;20.15;47.64
52957;BME280;38819;42.692;23.342;2022-09-12T10:56:13;95083.84;;;20.26;48.68
52957;BME280;38819;42.692;23.342;2022-09-12T11:01:41;95084.03;;;20.33;49.27
52957;BME280;38819;42.692;23.342;2022-09-12T11:09:53;95089.94;;;20.35;49.80
52957;BME280;38819;42.692;23.342;2022-09-12T11:30:13;95086.78;;;20.33;50.82
52957;BME280;38819;42.692;23.342;2022-09-12T11:32:49;95091.44;;;20.33;50.38
52957;BME280;38819;42.692;23.342;2022-09-12T11:35:28;95115.66;;;20.11;49.61
52957;BME280;38819;42.692;23.342;2022-09-12T11:38:08;95090.53;;;20.09;50.02
52957;BME280;38819;42.692;23.342;2022-09-12T11:43:27;95101.63;;;19.97;50.72
52957;BME280;38819;42.692;23.342;2022-09-12T11:46:00;95097.91;;;19.89;50.97
52957;BME280;38819;42.692;23.342;2022-09-12T11:48:50;95089.25;;;19.87;50.22
52957;BME280;38819;42.692;23.342;2022-09-12T11:51:24;95089.06;;;19.80;49.83
52957;BME280;38819;42.692;23.342;2022-09-12T11:54:03;95086.84;;;19.86;50.76
52957;BME280;38819;42.692;23.342;2022-09-12T11:56:30;95095.41;;;20.00;49.85
52957;BME280;38819;42.692;23.342;2022-09-12T11:59:03;95080.66;;;20.05;49.36
52957;BME280;38819;42.692;23.342;2022-09-12T12:01:41;95086.28;;;20.12;49.67
52957;BME280;38819;42.692;23.342;2022-09-12T12:04:11;95101.69;;;20.16;50.02
52957;BME280;38819;42.692;23.342;2022-09-12T12:06:47;95077.78;;;20.17;49.59
52957;BME280;38819;42.692;23.342;2022-09-12T12:09:14;95068.13;;;20.23;50.06
52957;BME280;38819;42.692;23.342;2022-09-12T12:11:53;95068.34;;;20.34;50.02
52957;BME280;38819;42.692;23.342;2022-09-12T12:14:25;95066.22;;;20.43;50.11
52957;BME280;38819;42.692;23.342;2022-09-12T12:16:54;95066.28;;;20.47;49.44
52957;BME280;38819;42.692;23.342;2022-09-12T12:21:49;95081.34;;;20.37;46.85
52957;BME280;38819;42.692;23.342;2022-09-12T12:24:19;95092.41;;;20.41;46.15
52957;BME280;38819;42.692;23.342;2022-09-12T12:36:53;95068.03;;;20.55;48.28
52957;BME280;38819;42.692;23.342;2022-09-12T12:42:08;95067.16;;;20.51;48.18
52957;BME280;38819;42.692;23.342;2022-09-12T12:47:18;95079.03;;;20.39;48.27
52957;BME280;38819;42.692;23.342;2022-09-12T12:49:55;95076.84;;;20.45;48.68
52957;BME280;38819;42.692;23.342;2022-09-12T12:52:23;95071.34;;;20.45;48.87
52957;BME280;38819;42.692;23.342;2022-09-12T12:54:54;95070.19;;;20.46;49.35
52957;BME280;38819;42.692;23.342;2022-09-12T12:57:45;95080.13;;;20.34;
52957;BME280;38819;42.692;23.342;2022-09-12T13:00:36;95080.09;;;20.15;49.94
52957;BME280;38819;42.692;23.342;2022-09-12T13:13:49;95082.31;;;20.09;50.50
52957;BME280;38819;42.692;23.342;2022-09-12T13:16:35;95078.63;;;20.02;51.07
52957;BME280;38819;42.692;23.342;2022-09-12T13:19:07;95054.72;;;20.18;50.18
52957;BME280;38819;42.692;23.342;2022-09-12T13:21:36;95063.56;;;20.11;49.98
52957;BME280;38819;42.692;23.342;2022-09-12T13:24:04;95079.75;;;20.16;49.34
52957;BME280;38819;42.692;23.342;2022-09-12T13:26:41;95069.28;;;20.22;50.03
52957;BME280;38819;42.692;23.342;2022-09-12T13:29:14;95071.78;;;20.11;49.04
52957;BME280;38819;42.692;23.342;2022-09-12T13:31:42;95061.72;;;19.99;49.17
52957;BME280;38819;42.692;23.342;2022-09-12T13:34:09;95061.09;;;20.06;48.94
52957;BME280;38819;42.692;23.342;2022-09-12T13:40:17;95058.81;;;20.08;48.67
52957;BME280;38819;42.692;23.342;2022-09-12T13:42:40;95057.69;;;20.13;48.90
52957;BME280;38819;42.692;23.342;2022-09-12T13:45:22;95058.75;;;20.24;49.16
52957;BME280;38819;42.692;23.342;2022-09-12T13:47:58;95066.91;;;20.21;49.31
52957;BME280;38819;42.692;23.342;2022-09-12T13:51:12;95052.31;;;20.16;49.15
52957;BME280;38819;42.692;23.342;2022-09-12T13:53:14;95051.50;;;20.16;49.70
52957;BME280;38819;42.692;23.342;2022-09-12T13:55:44;95063.13;;;20.09;49.76
52957;BME280;38819;42.692;23.342;2022-09-12T13:58:22;95058.94;;;20.15;48.73
52957;BME280;38819;42.692;23.342;2022-09-12T14:03:37;95055.06;;;20.16;48.01
52957;BME280;38819;42.692;23.342;2022-09-12T14:06:21;95060.97;;;20.18;48.44
52957;BME280;38819;42.692;23.342;2022-09-12T14:08:47;95062.84;;;20.14;48.56
52957;BME280;38819;42.692;23.342;2022-09-12T14:11:24;95057.81;;;20.16;48.29
52957;BME280;38819;42.692;23.342;2022-09-12T14:13:51;95060.97;;;20.18;48.38
52957;BME280;38819;42.692;23.342;2022-09-12T14:16:18;95052.41;;;20.20;48.96
52957;BME280;38819;42.692;23.342;2022-09-12T14:18:46;95054.56;;;20.30;49.04
52957;BME280;38819;42.692;23.342;2022-09-12T14:23:51;95058.69;;;20.40;49.12
52957;BME280;38819;42.692;23.342;2022-09-12T14:26:17;95059.84;;;20.39;49.03
52957;BME280;38819;42.692;23.342;2022-09-12T14:28:44;95070.75;;;20.35;49.19
52957;BME280;38819;42.692;23.342;2022-09-12T14:33:54;95067.31;;;20.23;50.06
52957;BME280;38819;42.692;23.342;2022-09-12T14:39:01;95076.38;;;20.23;50.37
52957;BME280;38819;42.692;23.342;2022-09-12T14:41:38;95057.16;;;20.23;49.82
52957;BME280;38819;42.692;23.342;2022-09-12T14:44:08;95060.41;;;20.29;49.73
52957;BME280;38819;42.692;23.342;2022-09-12T14:46:39;95069.28;;;20.22;49.80
52957;BME280;38819;42.692;23.342;2022-09-12T14:49:09;95075.75;;;20.14;49.44
52957;BME280;38819;42.692;23.342;2022-09-12T15:00:29;95068.28;;;19.79;51.64
52957;BME280;38819;42.692;23.342;2022-09-12T15:03:26;95075.03;;;19.82;51.34
52957;BME280;38819;42.692;23.342;2022-09-12T15:05:52;95068.28;;;19.79;51.29
52957;BME280;38819;42.692;23.342;2022-09-12T15:08:17;95066.09;;;19.85;51.20
52957;BME280;38819;42.692;23.342;2022-09-12T15:10:43;95060.63;;;19.85;51.31
52957;BME280;38819;42.692;23.342;2022-09-12T15:15:35;95074.41;;;19.88;51.73
52957;BME280;38819;42.692;23.342;2022-09-12T15:18:00;95070.97;;;19.75;52.20
52957;BME280;38819;42.692;23.342;2022-09-12T15:20:26;95062.88;;;19.83;52.09
52957;BME280;38819;42.692;23.342;2022-09-12T15:22:52;95072.88;;;19.91;51.81
52957;BME280;38819;42.692;23.342;2022-09-12T15:25:19;95068.44;;;19.86;51.94
52957;BME280;38819;42.692;23.342;2022-09-12T15:27:46;95070.97;;;19.75;52.52
52957;BME280;38819;42.692;23.342;2022-09-12T15:30:14;95066.69;;;19.62;52.58
52957;BME280;38819;42.692;23.342;2022-09-12T15:32:41;95076.25;;;19.68;52.51
52957;BME280;38819;42.692;23.342;2022-09-12T15:35:17;95081.25;;;19.66;51.22
52957;BME280;38819;42.692;23.342;2022-09-12T15:37:43;95059.59;;;19.61;52.07
52957;BME280;38819;42.692;23.342;2022-09-12T15:40:10;95063.94;;;19.62;52.17
52957;BME280;38819;42.692;23.342;2022-09-12T15:42:35;95061.56;;;19.60;52.60
52957;BME280;38819;42.692;23.342;2022-09-12T15:45:01;95056.44;;;19.59;52.61